createdAt,value
2019-01-30T00:00:27.590Z,7.10
2019-01-30T00:02:57.011Z,6.85
2019-01-30T00:05:26.344Z,4.40
2019-01-30T00:07:56.321Z,4.40
2019-01-30T00:10:25.741Z,7.47
2019-01-30T00:12:54.646Z,5.40
2019-01-30T00:15:24.119Z,5.65
2019-01-30T00:17:53.054Z,5.60
2019-01-30T00:20:22.316Z,4.62
2019-01-30T00:22:51.314Z,3.90
2019-01-30T00:25:20.367Z,6.20
2019-01-30T00:27:49.837Z,5.62
2019-01-30T00:30:18.826Z,5.95
2019-01-30T00:32:47.955Z,4.33
2019-01-30T00:35:17.111Z,5.35
2019-01-30T00:37:46.587Z,4.10
2019-01-30T00:40:15.863Z,4.95
2019-01-30T00:42:44.834Z,5.72
2019-01-30T00:45:15.862Z,3.27
2019-01-30T00:47:45.823Z,5.70
2019-01-30T00:50:15.212Z,5.25
2019-01-30T00:52:44.842Z,5.55
2019-01-30T00:55:14.791Z,3.37
2019-01-30T00:57:44.014Z,5.87
2019-01-30T01:00:16.259Z,4.05
2019-01-30T01:02:45.211Z,4.97
2019-01-30T01:05:15.884Z,5.17
2019-01-30T01:07:45.091Z,4.72
2019-01-30T01:10:15.794Z,5.62
2019-01-30T01:12:44.940Z,4.72
2019-01-30T01:15:16.724Z,5.60
2019-01-30T01:17:46.385Z,4.78
2019-01-30T01:20:15.484Z,4.60
2019-01-30T01:22:44.657Z,5.80
2019-01-30T01:25:16.567Z,4.53
2019-01-30T01:27:45.947Z,5.03
2019-01-30T01:30:25.165Z,7.12
2019-01-30T01:32:51.918Z,3.65
2019-01-30T01:35:21.046Z,4.95
2019-01-30T01:37:50.211Z,4.65
2019-01-30T01:40:19.325Z,5.35
2019-01-30T01:42:48.889Z,4.15
2019-01-30T01:45:20.407Z,5.12
2019-01-30T01:47:49.737Z,5.10
2019-01-30T01:50:20.197Z,5.20
2019-01-30T01:52:49.302Z,2.77
2019-01-30T01:55:18.476Z,5.12
2019-01-30T01:57:47.327Z,4.95
2019-01-30T02:00:19.431Z,4.95
2019-01-30T02:02:48.632Z,5.12
2019-01-30T02:05:19.867Z,3.80
2019-01-30T02:07:48.976Z,4.70
2019-01-30T02:10:20.888Z,3.85
2019-01-30T02:12:50.543Z,4.53
2019-01-30T02:15:21.737Z,4.50
2019-01-30T02:17:51.216Z,4.15
2019-01-30T02:20:25.630Z,5.17
2019-01-30T02:22:55.207Z,4.90
2019-01-30T02:25:24.191Z,5.60
2019-01-30T02:27:53.387Z,3.58
2019-01-30T02:30:24.817Z,4.25
2019-01-30T02:32:53.949Z,3.77
2019-01-30T02:35:23.257Z,4.55
2019-01-30T02:37:52.748Z,5.55
2019-01-30T02:40:22.175Z,5.80
2019-01-30T02:42:51.135Z,5.03
2019-01-30T02:45:22.138Z,4.47
2019-01-30T02:47:51.391Z,3.80
2019-01-30T02:50:20.850Z,6.00
2019-01-30T02:52:50.227Z,5.60
2019-01-30T02:55:19.640Z,5.90
2019-01-30T02:57:48.575Z,5.03
2019-01-30T03:00:30.407Z,5.37
2019-01-30T03:02:59.637Z,5.80
2019-01-30T03:05:29.167Z,6.10
2019-01-30T03:07:58.233Z,4.87
2019-01-30T03:10:27.441Z,4.78
2019-01-30T03:12:56.409Z,4.85
2019-01-30T03:15:25.531Z,5.50
2019-01-30T03:17:54.646Z,5.55
2019-01-30T03:20:25.880Z,4.80
2019-01-30T03:22:54.983Z,4.90
2019-01-30T03:25:26.244Z,4.92
2019-01-30T03:27:55.170Z,5.28
2019-01-30T03:30:26.816Z,5.58
2019-01-30T03:32:55.784Z,5.00
2019-01-30T03:35:24.877Z,4.30
2019-01-30T03:37:54.385Z,4.67
2019-01-30T03:40:23.797Z,4.85
2019-01-30T03:42:53.352Z,3.62
2019-01-30T03:45:23.108Z,4.90
2019-01-30T03:47:52.223Z,3.90
2019-01-30T03:50:21.346Z,5.05
2019-01-30T03:52:51.052Z,1.98
2019-01-30T03:55:20.351Z,5.45
2019-01-30T03:57:49.820Z,6.03
2019-01-30T04:00:35.941Z,6.03
2019-01-30T04:03:05.572Z,5.92
2019-01-30T04:05:34.653Z,4.97
2019-01-30T04:08:03.836Z,5.22
2019-01-30T04:10:33.564Z,6.85
2019-01-30T04:13:02.853Z,5.15
2019-01-30T04:15:32.285Z,5.70
2019-01-30T04:18:01.484Z,4.55
2019-01-30T04:20:30.494Z,5.97
2019-01-30T04:22:59.794Z,6.05
2019-01-30T04:25:29.078Z,5.83
2019-01-30T04:27:58.078Z,5.08
2019-01-30T04:30:27.343Z,3.87
2019-01-30T04:32:56.418Z,5.67
2019-01-30T04:35:25.517Z,6.00
2019-01-30T04:37:54.443Z,5.78
2019-01-30T04:40:24.641Z,6.08
2019-01-30T04:42:54.325Z,5.90
2019-01-30T04:45:24.939Z,5.45
2019-01-30T04:47:54.177Z,3.33
2019-01-30T04:50:23.330Z,5.97
2019-01-30T04:52:52.263Z,5.12
2019-01-30T04:55:21.690Z,4.90
2019-01-30T04:57:52.366Z,6.75
2019-01-30T05:00:23.411Z,5.00
2019-01-30T05:02:52.897Z,6.08
2019-01-30T05:05:21.913Z,4.97
2019-01-30T05:07:51.318Z,4.58
2019-01-30T05:10:20.536Z,5.17
2019-01-30T05:12:50.192Z,5.12
2019-01-30T05:15:19.896Z,4.58
2019-01-30T05:17:49.304Z,5.35
2019-01-30T05:20:19.174Z,5.47
2019-01-30T05:22:48.267Z,5.92
2019-01-30T05:25:17.390Z,4.67
2019-01-30T05:27:46.481Z,3.55
2019-01-30T05:30:27.464Z,6.62
2019-01-30T05:32:56.431Z,5.30
2019-01-30T05:35:25.646Z,5.42
2019-01-30T05:37:54.718Z,5.97
2019-01-30T05:40:24.280Z,5.60
2019-01-30T05:42:53.603Z,5.08
2019-01-30T05:45:22.853Z,6.83
2019-01-30T05:47:52.552Z,5.20
2019-01-30T05:50:21.761Z,6.40
2019-01-30T05:52:51.317Z,7.20
2019-01-30T05:55:22.215Z,4.72
2019-01-30T05:57:51.111Z,6.47
2019-01-30T06:00:31.771Z,6.87
2019-01-30T06:03:00.681Z,6.95
2019-01-30T06:05:29.843Z,7.97
2019-01-30T06:07:58.885Z,6.53
2019-01-30T06:10:28.507Z,6.28
2019-01-30T06:13:05.523Z,6.22
2019-01-30T06:15:35.043Z,7.12
2019-01-30T06:18:04.372Z,6.17
2019-01-30T06:20:34.137Z,6.45
2019-01-30T06:23:03.397Z,5.95
2019-01-30T06:25:32.576Z,5.35
2019-01-30T06:28:03.996Z,6.67
2019-01-30T06:30:33.067Z,7.03
2019-01-30T06:33:02.066Z,8.00
2019-01-30T06:35:32.549Z,7.22
2019-01-30T06:38:01.861Z,7.12
2019-01-30T06:40:33.680Z,7.58
2019-01-30T06:43:03.031Z,4.72
2019-01-30T06:45:32.614Z,7.45
2019-01-30T06:48:03.253Z,6.03
2019-01-30T06:50:32.336Z,6.60
2019-01-30T06:53:01.628Z,8.18
2019-01-30T06:55:30.820Z,6.65
2019-01-30T06:57:59.932Z,7.22
2019-01-30T07:00:29.210Z,6.40
2019-01-30T07:02:59.239Z,7.65
2019-01-30T07:05:31.189Z,8.50
2019-01-30T07:08:00.293Z,7.40
2019-01-30T07:10:48.517Z,8.33
2019-01-30T07:13:37.156Z,9.23
2019-01-30T07:16:06.456Z,9.53
2019-01-30T07:18:35.650Z,9.38
2019-01-30T07:21:06.025Z,8.70
2019-01-30T07:23:35.994Z,9.93
2019-01-30T07:26:05.070Z,9.20
2019-01-30T07:28:34.096Z,4.83
2019-01-30T07:31:03.888Z,9.13
2019-01-30T07:33:32.839Z,11.65
2019-01-30T07:36:02.321Z,10.45
2019-01-30T07:38:31.393Z,11.00
2019-01-30T07:41:00.560Z,12.90
2019-01-30T07:43:29.675Z,11.05
2019-01-30T07:45:58.901Z,10.90
2019-01-30T07:48:29.070Z,10.65
2019-01-30T07:50:58.115Z,12.37
2019-01-30T07:53:27.170Z,10.85
2019-01-30T07:55:56.078Z,10.35
2019-01-30T07:58:25.199Z,11.18
2019-01-30T08:00:54.119Z,7.85
2019-01-30T08:03:23.404Z,8.55
2019-01-30T08:05:52.270Z,6.83
2019-01-30T08:08:21.251Z,7.20
2019-01-30T08:10:50.362Z,6.75
2019-01-30T08:13:19.653Z,8.00
2019-01-30T08:15:48.612Z,11.33
2019-01-30T08:18:18.759Z,8.98
2019-01-30T08:20:48.002Z,9.28
2019-01-30T08:23:17.087Z,10.10
2019-01-30T08:25:47.041Z,6.70
2019-01-30T08:28:16.601Z,8.88
2019-01-30T08:30:45.920Z,10.53
2019-01-30T08:33:15.713Z,9.85
2019-01-30T08:35:46.522Z,9.48
2019-01-30T08:38:16.170Z,6.80
2019-01-30T08:40:45.310Z,9.08
2019-01-30T08:43:14.583Z,10.13
2019-01-30T08:45:43.744Z,8.70
2019-01-30T08:48:14.013Z,8.10
2019-01-30T08:50:43.476Z,8.15
2019-01-30T08:53:12.577Z,10.00
2019-01-30T08:55:41.848Z,9.88
2019-01-30T08:58:11.568Z,9.48
2019-01-30T09:00:40.829Z,9.40
2019-01-30T09:03:14.826Z,8.70
2019-01-30T09:05:40.713Z,11.43
2019-01-30T09:08:11.364Z,8.08
2019-01-30T09:10:43.473Z,10.38
2019-01-30T09:13:20.016Z,12.00
2019-01-30T09:15:49.705Z,5.17
2019-01-30T09:18:19.769Z,6.83
2019-01-30T09:20:48.960Z,7.42
2019-01-30T09:23:18.253Z,6.65
2019-01-30T09:25:47.223Z,10.38
2019-01-30T09:28:16.685Z,6.20
2019-01-30T09:30:45.828Z,10.48
2019-01-30T09:33:25.400Z,9.95
2019-01-30T09:35:45.980Z,7.40
2019-01-30T09:38:15.076Z,9.65
2019-01-30T09:40:44.260Z,8.80
2019-01-30T09:43:13.870Z,9.45
2019-01-30T09:45:43.091Z,10.55
2019-01-30T09:48:13.531Z,9.15
2019-01-30T09:50:42.514Z,8.55
2019-01-30T09:53:11.562Z,7.00
2019-01-30T09:55:41.831Z,9.43
2019-01-30T09:58:10.918Z,4.35
2019-01-30T10:00:40.077Z,8.08
2019-01-30T10:03:09.843Z,8.73
2019-01-30T10:05:39.244Z,8.35
2019-01-30T10:08:09.227Z,8.25
2019-01-30T10:10:40.000Z,7.15
2019-01-30T10:13:11.032Z,4.15
2019-01-30T10:15:43.441Z,7.22
2019-01-30T10:18:14.051Z,7.17
2019-01-30T10:20:45.187Z,4.95
2019-01-30T10:23:14.729Z,10.82
2019-01-30T10:25:44.503Z,2.55
2019-01-30T10:28:16.707Z,2.30
2019-01-30T10:30:45.941Z,2.67
2019-01-30T10:33:15.231Z,2.25
2019-01-30T10:35:44.296Z,2.47
2019-01-30T10:38:13.871Z,2.27
2019-01-30T10:40:44.717Z,2.45
2019-01-30T10:43:14.251Z,2.62
2019-01-30T10:45:43.687Z,2.10
2019-01-30T10:48:13.431Z,2.00
2019-01-30T10:50:42.771Z,2.77
2019-01-30T10:53:12.451Z,7.47
2019-01-30T10:55:43.944Z,25.08
2019-01-30T10:58:16.065Z,6.97
2019-01-30T11:00:48.149Z,33.42
2019-01-30T11:03:18.208Z,19.92
2019-01-30T11:05:48.011Z,13.30
2019-01-30T11:08:34.542Z,46.77
2019-01-30T11:11:08.130Z,40.30
2019-01-30T11:13:35.157Z,46.92
2019-01-30T11:16:04.330Z,16.85
2019-01-30T11:18:33.511Z,18.35
2019-01-30T11:21:02.704Z,17.45
2019-01-30T11:23:32.352Z,15.63
2019-01-30T11:26:01.623Z,34.65
2019-01-30T11:28:30.891Z,33.98
2019-01-30T11:31:00.710Z,15.78
2019-01-30T11:33:29.677Z,7.17
2019-01-30T11:35:58.665Z,5.67
2019-01-30T11:38:27.995Z,5.62
2019-01-30T11:40:56.939Z,6.03
2019-01-30T11:43:25.974Z,4.30
2019-01-30T11:45:55.135Z,5.85
2019-01-30T11:48:24.614Z,2.40
2019-01-30T11:50:53.588Z,2.37
2019-01-30T11:53:22.561Z,1.82
2019-01-30T11:55:52.072Z,2.60
2019-01-30T11:58:21.418Z,1.35
2019-01-30T12:01:09.440Z,1.15
2019-01-30T12:03:39.184Z,1.70
2019-01-30T12:06:11.299Z,1.22
2019-01-30T12:08:45.108Z,1.87
2019-01-30T12:11:14.390Z,2.50
2019-01-30T12:13:46.583Z,2.12
2019-01-30T12:16:16.482Z,1.00
2019-01-30T12:18:45.454Z,3.00
2019-01-30T12:21:14.816Z,1.67
2019-01-30T12:23:44.308Z,1.35
2019-01-30T12:26:14.379Z,1.62
2019-01-30T12:28:44.086Z,1.98
2019-01-30T12:31:13.286Z,1.85
2019-01-30T12:33:42.484Z,2.92
2019-01-30T12:36:12.101Z,2.58
2019-01-30T12:38:41.601Z,2.65
2019-01-30T12:41:10.897Z,3.87
2019-01-30T12:43:39.959Z,1.75
2019-01-30T12:46:09.701Z,1.17
2019-01-30T12:48:39.085Z,1.15
2019-01-30T12:51:08.279Z,1.00
2019-01-30T12:53:37.506Z,1.20
2019-01-30T12:56:06.677Z,1.15
2019-01-30T12:58:36.407Z,1.15
2019-01-30T13:01:05.909Z,1.15
2019-01-30T13:03:36.875Z,1.35
2019-01-30T13:06:12.093Z,1.05
2019-01-30T13:08:41.232Z,1.10
2019-01-30T13:11:12.003Z,1.50
2019-01-30T13:13:41.254Z,1.70
2019-01-30T13:16:10.872Z,1.35
2019-01-30T13:18:40.424Z,1.05
2019-01-30T13:21:09.598Z,0.98
2019-01-30T13:23:38.891Z,1.25
2019-01-30T13:26:08.836Z,0.90
2019-01-30T13:28:38.533Z,1.50
2019-01-30T13:31:07.699Z,1.30
2019-01-30T13:33:37.287Z,0.68
2019-01-30T13:36:06.760Z,1.12
2019-01-30T13:38:36.018Z,1.30
2019-01-30T13:41:05.221Z,1.00
2019-01-30T13:43:34.626Z,0.90
2019-01-30T13:46:05.409Z,0.80
2019-01-30T13:48:35.198Z,0.80
2019-01-30T13:51:04.338Z,0.90
2019-01-30T13:53:34.284Z,1.05
2019-01-30T13:56:03.501Z,1.10
2019-01-30T13:58:32.694Z,1.20
2019-01-30T14:01:02.511Z,1.30
2019-01-30T14:03:32.024Z,1.20
2019-01-30T14:06:01.205Z,1.40
2019-01-30T14:08:30.819Z,1.05
2019-01-30T14:11:00.009Z,0.98
2019-01-30T14:13:32.435Z,1.25
2019-01-30T14:16:03.035Z,1.30
2019-01-30T14:18:32.524Z,1.65
2019-01-30T14:21:02.512Z,1.17
2019-01-30T14:23:31.946Z,1.30
2019-01-30T14:26:01.303Z,1.15
2019-01-30T14:28:30.510Z,1.35
2019-01-30T14:30:59.859Z,1.40
2019-01-30T14:33:29.477Z,1.20
2019-01-30T14:35:58.689Z,1.20
2019-01-30T14:38:27.995Z,1.10
2019-01-30T14:40:57.755Z,1.07
2019-01-30T14:43:27.274Z,1.52
2019-01-30T14:45:56.865Z,2.00
2019-01-30T14:48:26.348Z,1.70
2019-01-30T14:50:55.645Z,1.70
2019-01-30T14:53:27.832Z,2.70
2019-01-30T14:55:57.146Z,1.85
2019-01-30T14:58:27.956Z,1.25
2019-01-30T15:00:57.066Z,2.20
2019-01-30T15:03:26.565Z,2.17
2019-01-30T15:06:04.785Z,2.72
2019-01-30T15:08:45.905Z,2.90
2019-01-30T15:11:15.709Z,2.37
2019-01-30T15:13:54.067Z,2.40
2019-01-30T15:16:23.460Z,1.90
2019-01-30T15:19:25.922Z,2.05
2019-01-30T15:22:01.719Z,2.50
2019-01-30T15:24:49.856Z,2.30
2019-01-30T15:27:38.246Z,2.67
2019-01-30T15:30:27.613Z,2.35
2019-01-30T15:33:15.992Z,2.47
2019-01-30T15:36:04.418Z,2.95
2019-01-30T15:41:46.141Z,2.35
2019-01-30T15:44:34.255Z,4.45
2019-01-30T15:47:34.406Z,3.55
2019-01-30T15:53:09.940Z,2.98
2019-01-30T15:55:50.890Z,3.08
2019-01-30T15:58:31.411Z,4.12
2019-01-30T16:01:12.372Z,3.02
2019-01-30T16:03:53.317Z,4.00
2019-01-30T16:06:33.827Z,3.50
2019-01-30T16:09:15.321Z,3.00
2019-01-30T16:11:46.063Z,3.10
2019-01-30T16:14:16.619Z,3.42
2019-01-30T16:16:45.753Z,3.37
2019-01-30T16:19:14.935Z,3.62
2019-01-30T16:21:44.080Z,2.70
2019-01-30T16:24:23.503Z,4.10
2019-01-30T16:26:52.680Z,4.80
2019-01-30T16:29:22.258Z,3.62
2019-01-30T16:31:51.336Z,6.22
2019-01-30T16:34:21.026Z,4.42
2019-01-30T16:36:51.435Z,5.12
2019-01-30T16:39:20.724Z,4.20
2019-01-30T16:41:52.381Z,3.85
2019-01-30T16:44:21.567Z,4.10
2019-01-30T16:46:51.727Z,3.80
2019-01-30T16:49:21.284Z,4.45
2019-01-30T16:51:50.832Z,5.10
2019-01-30T16:54:20.162Z,3.90
2019-01-30T16:56:50.068Z,3.70
2019-01-30T16:59:19.411Z,4.05
2019-01-30T17:01:50.203Z,5.47
2019-01-30T17:04:19.176Z,5.03
2019-01-30T17:06:50.807Z,6.00
2019-01-30T17:09:20.628Z,4.00
2019-01-30T17:11:50.153Z,5.92
2019-01-30T17:14:19.275Z,5.15
2019-01-30T17:16:48.426Z,5.75
2019-01-30T17:19:17.467Z,5.97
2019-01-30T17:21:46.534Z,5.30
2019-01-30T17:24:15.795Z,4.75
2019-01-30T17:26:45.062Z,5.60
2019-01-30T17:29:14.319Z,4.15
2019-01-30T17:31:43.365Z,5.67
2019-01-30T17:34:12.902Z,5.53
2019-01-30T17:36:41.976Z,5.55
2019-01-30T17:39:11.359Z,6.50
2019-01-30T17:41:40.932Z,4.20
2019-01-30T17:44:12.817Z,5.28
2019-01-30T17:46:41.370Z,5.80
2019-01-30T17:49:10.398Z,5.92
2019-01-30T17:51:42.988Z,5.60
2019-01-30T17:54:12.228Z,4.10
2019-01-30T17:56:41.434Z,6.47
2019-01-30T17:59:10.968Z,6.35
2019-01-30T18:01:40.322Z,5.00
2019-01-30T18:04:10.157Z,5.60
2019-01-30T18:06:39.513Z,6.60
2019-01-30T18:09:11.044Z,6.25
2019-01-30T18:11:40.371Z,5.80
2019-01-30T18:14:09.662Z,5.70
2019-01-30T18:16:38.864Z,7.30
2019-01-30T18:19:08.487Z,6.75
2019-01-30T18:21:37.694Z,7.00
2019-01-30T18:24:06.986Z,7.40
2019-01-30T18:26:37.933Z,7.20
2019-01-30T18:29:06.879Z,8.90
2019-01-30T18:31:35.960Z,6.92
2019-01-30T18:34:05.057Z,7.30
2019-01-30T18:36:41.242Z,9.45
2019-01-30T18:39:09.815Z,7.37
2019-01-30T18:41:38.992Z,7.97
2019-01-30T18:44:08.353Z,8.13
2019-01-30T18:46:37.653Z,6.72
2019-01-30T18:49:06.722Z,8.10
2019-01-30T18:51:36.705Z,7.80
2019-01-30T18:54:06.203Z,5.65
2019-01-30T18:56:39.640Z,6.37
2019-01-30T18:59:09.523Z,3.90
2019-01-30T19:01:39.136Z,6.70
2019-01-30T19:04:08.657Z,6.35
2019-01-30T19:06:37.989Z,5.08
2019-01-30T19:09:12.830Z,6.85
2019-01-30T19:11:43.969Z,7.40
2019-01-30T19:14:18.857Z,7.00
2019-01-30T19:16:48.657Z,6.40
2019-01-30T19:19:21.604Z,7.60
2019-01-30T19:22:10.504Z,5.42
2019-01-30T19:24:58.684Z,5.47
2019-01-30T19:27:46.899Z,5.83
2019-01-30T19:30:35.146Z,5.50
2019-01-30T19:33:23.293Z,6.20
2019-01-30T19:36:12.844Z,4.83
2019-01-30T19:39:00.880Z,4.92
2019-01-30T19:41:50.319Z,3.85
2019-01-30T19:44:39.082Z,4.90
2019-01-30T19:47:28.750Z,4.80
2019-01-30T19:50:18.108Z,5.75
2019-01-30T19:52:59.182Z,6.83
2019-01-30T19:58:24.171Z,6.28
2019-01-30T20:01:05.129Z,6.37
2019-01-30T20:03:46.433Z,7.20
2019-01-30T20:06:15.614Z,5.80
2019-01-30T20:09:24.733Z,5.45
2019-01-30T20:12:13.039Z,4.40
2019-01-30T20:15:01.083Z,5.20
2019-01-30T20:20:43.857Z,3.58
2019-01-30T20:23:31.863Z,5.80
2019-01-30T20:26:19.963Z,6.85
2019-01-30T20:29:08.066Z,6.62
2019-01-30T20:31:56.207Z,6.55
2019-01-30T20:34:44.359Z,6.97
2019-01-30T20:37:32.519Z,4.20
2019-01-30T20:40:21.748Z,3.45
2019-01-30T20:43:09.977Z,4.80
2019-01-30T20:45:58.884Z,4.12
2019-01-30T20:48:51.394Z,4.08
2019-01-30T20:51:36.782Z,4.25
2019-01-30T20:54:25.150Z,3.55
2019-01-30T20:57:13.441Z,4.28
2019-01-30T21:00:01.509Z,4.05
2019-01-30T21:02:50.250Z,4.42
2019-01-30T21:05:31.141Z,5.20
2019-01-30T21:08:12.298Z,3.12
2019-01-30T21:10:52.831Z,3.45
2019-01-30T21:13:33.289Z,3.27
2019-01-30T21:16:13.734Z,3.40
2019-01-30T21:18:54.407Z,3.72
2019-01-30T21:21:35.427Z,2.77
2019-01-30T21:26:58.638Z,2.87
2019-01-30T21:29:40.531Z,2.92
2019-01-30T21:32:21.447Z,3.90
2019-01-30T21:35:02.029Z,2.90
2019-01-30T21:37:49.090Z,4.20
2019-01-30T21:40:26.180Z,3.17
2019-01-30T21:43:06.773Z,4.40
2019-01-30T21:45:47.754Z,3.45
2019-01-30T21:48:28.323Z,3.15
2019-01-30T21:51:09.411Z,3.62
2019-01-30T21:53:49.974Z,3.80
2019-01-30T21:56:31.043Z,3.08
2019-01-30T21:59:11.792Z,3.27
2019-01-30T22:01:52.277Z,3.55
2019-01-30T22:04:33.046Z,3.50
2019-01-30T22:07:13.844Z,4.75
2019-01-30T22:09:55.326Z,3.72
2019-01-30T22:12:36.424Z,3.30
2019-01-30T22:15:16.931Z,2.35
2019-01-30T22:17:57.714Z,3.50
2019-01-30T22:20:39.165Z,3.77
2019-01-30T22:23:20.403Z,3.33
2019-01-30T22:26:01.280Z,2.70
2019-01-30T22:28:41.986Z,3.20
2019-01-30T22:31:22.931Z,3.75
2019-01-30T22:34:03.961Z,3.10
2019-01-30T22:36:44.783Z,5.00
2019-01-30T22:39:28.568Z,4.40
2019-01-30T22:42:10.002Z,4.37
2019-01-30T22:44:50.485Z,4.60
2019-01-30T22:47:31.093Z,4.75
2019-01-30T22:50:12.011Z,5.55
2019-01-30T22:52:56.384Z,4.45
2019-01-30T22:58:20.235Z,4.30
2019-01-30T23:01:04.590Z,4.50
2019-01-30T23:03:45.234Z,4.60
2019-01-30T23:06:26.162Z,4.08
2019-01-30T23:09:06.898Z,4.30
2019-01-30T23:14:29.801Z,4.30
2019-01-30T23:17:11.816Z,3.75
2019-01-30T23:19:52.741Z,4.10
2019-01-30T23:22:33.987Z,3.98
2019-01-30T23:27:57.343Z,5.53
2019-01-30T23:30:38.332Z,4.08
2019-01-30T23:33:19.835Z,3.85
2019-01-30T23:36:01.140Z,3.98
2019-01-30T23:38:41.897Z,3.65
2019-01-30T23:41:23.228Z,3.80
2019-01-30T23:44:03.782Z,3.00
2019-01-30T23:46:45.013Z,4.37
2019-01-30T23:49:25.907Z,3.58
2019-01-30T23:52:06.615Z,4.05
2019-01-30T23:54:48.651Z,4.22
2019-01-30T23:57:29.339Z,4.67
